Adams, Oregon
Current Conditions -  °F | °C
As of 2:53 AM on Friday 19 Dec 2014 (Local Time) from KPDT Reporting Station
Light Rain Light Rain  
Wind Chill:   Ceiling: 5000
Heat Index:   Visibility: 6mi
Dew Point:   Wind: 3mph
Humidity: 76%   Direction: NA
Pressure: 29.86"   Gusts: NA
Location:  45.77°N, 118.56°W
Report Text: KPDT 191053Z AUTO VRB03KT 6SM -RA OVC050 08/04 A2986 RMK AO2 SLP111 P0003 T00780039
Loading
Personal Weather Stations






























Interactive Weather Map New forecast layout! Learn more

10-Day Weather Forecast

Advertisements
Track Severe Weather on mobile